sensor_id;sensor_type;location;lat;lon;timestamp;temperature;humidity
21331;DHT22;10824;51.632;4.950;2023-03-14T00:00:11;11.80;98.30
21331;DHT22;10824;51.632;4.950;2023-03-14T00:02:40;11.70;99.90
21331;DHT22;10824;51.632;4.950;2023-03-14T00:05:08;11.60;98.40
21331;DHT22;10824;51.632;4.950;2023-03-14T00:07:37;11.60;98.30
21331;DHT22;10824;51.632;4.950;2023-03-14T00:10:06;11.60;95.20
21331;DHT22;10824;51.632;4.950;2023-03-14T00:12:33;11.70;96.90
21331;DHT22;10824;51.632;4.950;2023-03-14T00:15:01;11.60;98.50
21331;DHT22;10824;51.632;4.950;2023-03-14T00:17:32;11.60;90.30
21331;DHT22;10824;51.632;4.950;2023-03-14T00:20:00;11.60;90.20
21331;DHT22;10824;51.632;4.950;2023-03-14T00:22:35;11.60;90.90
21331;DHT22;10824;51.632;4.950;2023-03-14T00:25:04;11.60;90.80
21331;DHT22;10824;51.632;4.950;2023-03-14T00:27:31;11.60;88.60
21331;DHT22;10824;51.632;4.950;2023-03-14T00:29:58;11.60;88.30
21331;DHT22;10824;51.632;4.950;2023-03-14T00:32:25;11.50;87.60
21331;DHT22;10824;51.632;4.950;2023-03-14T00:34:52;11.50;87.70
21331;DHT22;10824;51.632;4.950;2023-03-14T00:37:20;11.50;88.30
21331;DHT22;10824;51.632;4.950;2023-03-14T00:39:47;11.40;88.30
21331;DHT22;10824;51.632;4.950;2023-03-14T00:42:14;11.40;87.20
21331;DHT22;10824;51.632;4.950;2023-03-14T00:44:41;11.40;87.20
21331;DHT22;10824;51.632;4.950;2023-03-14T00:47:08;11.40;88.60
21331;DHT22;10824;51.632;4.950;2023-03-14T00:49:35;11.30;88.90
21331;DHT22;10824;51.632;4.950;2023-03-14T00:52:02;11.30;88.50
21331;DHT22;10824;51.632;4.950;2023-03-14T00:54:29;11.30;89.40
21331;DHT22;10824;51.632;4.950;2023-03-14T00:56:56;11.20;90.60
21331;DHT22;10824;51.632;4.950;2023-03-14T00:59:23;11.30;91.70
21331;DHT22;10824;51.632;4.950;2023-03-14T01:01:50;11.20;90.80
21331;DHT22;10824;51.632;4.950;2023-03-14T01:04:18;11.30;91.00
21331;DHT22;10824;51.632;4.950;2023-03-14T01:06:45;11.20;92.00
21331;DHT22;10824;51.632;4.950;2023-03-14T01:09:12;11.10;93.90
21331;DHT22;10824;51.632;4.950;2023-03-14T01:11:40;11.00;94.80
21331;DHT22;10824;51.632;4.950;2023-03-14T01:14:07;11.00;95.80
21331;DHT22;10824;51.632;4.950;2023-03-14T01:16:35;10.90;97.90
21331;DHT22;10824;51.632;4.950;2023-03-14T01:19:02;10.80;99.90
21331;DHT22;10824;51.632;4.950;2023-03-14T01:21:32;10.70;99.90
21331;DHT22;10824;51.632;4.950;2023-03-14T01:24:00;10.60;99.90
21331;DHT22;10824;51.632;4.950;2023-03-14T01:26:31;10.50;99.90
21331;DHT22;10824;51.632;4.950;2023-03-14T01:28:58;10.40;99.90
21331;DHT22;10824;51.632;4.950;2023-03-14T01:31:27;10.40;99.90
21331;DHT22;10824;51.632;4.950;2023-03-14T01:33:55;10.40;99.90
21331;DHT22;10824;51.632;4.950;2023-03-14T01:36:22;10.50;99.90
21331;DHT22;10824;51.632;4.950;2023-03-14T01:38:50;10.50;99.90
21331;DHT22;10824;51.632;4.950;2023-03-14T01:41:21;10.50;99.90
21331;DHT22;10824;51.632;4.950;2023-03-14T01:43:49;10.60;99.90
21331;DHT22;10824;51.632;4.950;2023-03-14T01:46:32;10.60;99.90
21331;DHT22;10824;51.632;4.950;2023-03-14T01:51:56;10.50;99.90
21331;DHT22;10824;51.632;4.950;2023-03-14T01:54:33;10.50;99.90
21331;DHT22;10824;51.632;4.950;2023-03-14T01:57:32;10.40;99.90
21331;DHT22;10824;51.632;4.950;2023-03-14T02:02:41;10.50;99.90
21331;DHT22;10824;51.632;4.950;2023-03-14T02:05:14;10.50;99.90
21331;DHT22;10824;51.632;4.950;2023-03-14T02:07:50;10.60;99.90
21331;DHT22;10824;51.632;4.950;2023-03-14T02:10:32;10.60;99.90
21331;DHT22;10824;51.632;4.950;2023-03-14T02:13:03;10.60;99.90
21331;DHT22;10824;51.632;4.950;2023-03-14T02:15:46;10.60;99.90
21331;DHT22;10824;51.632;4.950;2023-03-14T02:18:34;10.60;99.90
21331;DHT22;10824;51.632;4.950;2023-03-14T02:24:21;10.60;99.20
21331;DHT22;10824;51.632;4.950;2023-03-14T02:27:09;10.60;99.20
21331;DHT22;10824;51.632;4.950;2023-03-14T02:29:48;10.60;99.40
21331;DHT22;10824;51.632;4.950;2023-03-14T02:32:18;10.60;99.90
21331;DHT22;10824;51.632;4.950;2023-03-14T02:34:49;10.60;99.80
21331;DHT22;10824;51.632;4.950;2023-03-14T02:37:19;10.60;99.90
21331;DHT22;10824;51.632;4.950;2023-03-14T02:39:48;10.70;99.90
21331;DHT22;10824;51.632;4.950;2023-03-14T02:42:17;10.60;99.90
21331;DHT22;10824;51.632;4.950;2023-03-14T02:44:52;10.60;99.90
21331;DHT22;10824;51.632;4.950;2023-03-14T02:47:22;10.60;99.90
21331;DHT22;10824;51.632;4.950;2023-03-14T02:49:58;10.60;99.90
21331;DHT22;10824;51.632;4.950;2023-03-14T02:52:26;10.60;99.90
21331;DHT22;10824;51.632;4.950;2023-03-14T02:54:53;10.50;99.90
21331;DHT22;10824;51.632;4.950;2023-03-14T02:57:20;10.50;99.90
21331;DHT22;10824;51.632;4.950;2023-03-14T02:59:47;10.50;99.90
21331;DHT22;10824;51.632;4.950;2023-03-14T03:02:18;10.50;99.90
21331;DHT22;10824;51.632;4.950;2023-03-14T03:04:45;10.50;99.90
21331;DHT22;10824;51.632;4.950;2023-03-14T03:07:12;10.50;99.90
21331;DHT22;10824;51.632;4.950;2023-03-14T03:09:39;10.50;99.90
21331;DHT22;10824;51.632;4.950;2023-03-14T03:12:06;10.50;99.90
21331;DHT22;10824;51.632;4.950;2023-03-14T03:14:33;10.40;99.90
21331;DHT22;10824;51.632;4.950;2023-03-14T03:17:04;10.40;99.90
21331;DHT22;10824;51.632;4.950;2023-03-14T03:19:34;10.40;99.90
21331;DHT22;10824;51.632;4.950;2023-03-14T03:22:01;10.40;99.90
21331;DHT22;10824;51.632;4.950;2023-03-14T03:24:28;10.40;99.90
21331;DHT22;10824;51.632;4.950;2023-03-14T03:26:55;10.40;99.90
21331;DHT22;10824;51.632;4.950;2023-03-14T03:29:22;10.40;99.90
21331;DHT22;10824;51.632;4.950;2023-03-14T03:31:50;10.30;99.90
21331;DHT22;10824;51.632;4.950;2023-03-14T03:34:17;10.40;99.90
21331;DHT22;10824;51.632;4.950;2023-03-14T03:36:48;10.30;99.90
21331;DHT22;10824;51.632;4.950;2023-03-14T03:39:15;10.30;99.90
21331;DHT22;10824;51.632;4.950;2023-03-14T03:41:42;10.30;99.90
21331;DHT22;10824;51.632;4.950;2023-03-14T03:44:10;10.30;99.90
21331;DHT22;10824;51.632;4.950;2023-03-14T03:46:38;10.30;99.90
21331;DHT22;10824;51.632;4.950;2023-03-14T03:49:07;10.30;99.90
21331;DHT22;10824;51.632;4.950;2023-03-14T03:51:34;10.30;99.90
21331;DHT22;10824;51.632;4.950;2023-03-14T03:54:01;10.30;99.90
21331;DHT22;10824;51.632;4.950;2023-03-14T03:56:31;10.30;99.90
21331;DHT22;10824;51.632;4.950;2023-03-14T03:58:59;10.30;99.90
21331;DHT22;10824;51.632;4.950;2023-03-14T04:01:26;10.30;99.90
21331;DHT22;10824;51.632;4.950;2023-03-14T04:03:56;10.20;99.90
21331;DHT22;10824;51.632;4.950;2023-03-14T04:06:24;10.20;99.90
21331;DHT22;10824;51.632;4.950;2023-03-14T04:08:55;10.20;99.90
21331;DHT22;10824;51.632;4.950;2023-03-14T04:11:37;10.20;99.90
21331;DHT22;10824;51.632;4.950;2023-03-14T04:14:13;10.20;99.90
21331;DHT22;10824;51.632;4.950;2023-03-14T04:16:40;10.20;99.90
21331;DHT22;10824;51.632;4.950;2023-03-14T04:19:11;10.10;99.90
21331;DHT22;10824;51.632;4.950;2023-03-14T04:21:38;10.10;99.90
21331;DHT22;10824;51.632;4.950;2023-03-14T04:24:11;10.10;99.90
21331;DHT22;10824;51.632;4.950;2023-03-14T04:26:39;10.10;99.90
21331;DHT22;10824;51.632;4.950;2023-03-14T04:29:09;10.00;99.90
21331;DHT22;10824;51.632;4.950;2023-03-14T04:31:39;10.00;99.90
21331;DHT22;10824;51.632;4.950;2023-03-14T04:34:06;10.00;99.90
21331;DHT22;10824;51.632;4.950;2023-03-14T04:36:38;10.00;99.90
21331;DHT22;10824;51.632;4.950;2023-03-14T04:39:12;10.00;99.90
21331;DHT22;10824;51.632;4.950;2023-03-14T04:41:49;10.00;99.90
21331;DHT22;10824;51.632;4.950;2023-03-14T04:44:18;10.00;99.90
21331;DHT22;10824;51.632;4.950;2023-03-14T04:46:45;10.00;99.90
21331;DHT22;10824;51.632;4.950;2023-03-14T04:49:13;10.00;99.90
21331;DHT22;10824;51.632;4.950;2023-03-14T04:51:40;10.00;99.90
21331;DHT22;10824;51.632;4.950;2023-03-14T04:54:08;10.00;99.90
21331;DHT22;10824;51.632;4.950;2023-03-14T04:56:36;10.00;99.90
21331;DHT22;10824;51.632;4.950;2023-03-14T04:59:04;10.00;99.90
21331;DHT22;10824;51.632;4.950;2023-03-14T05:01:35;10.00;99.90
21331;DHT22;10824;51.632;4.950;2023-03-14T05:04:22;10.00;99.90
21331;DHT22;10824;51.632;4.950;2023-03-14T05:07:00;10.00;99.90
21331;DHT22;10824;51.632;4.950;2023-03-14T05:09:45;10.00;99.90
21331;DHT22;10824;51.632;4.950;2023-03-14T05:12:25;9.90;99.90
21331;DHT22;10824;51.632;4.950;2023-03-14T05:14:58;9.90;99.90
21331;DHT22;10824;51.632;4.950;2023-03-14T05:17:45;9.90;99.90
21331;DHT22;10824;51.632;4.950;2023-03-14T05:20:32;9.90;99.90
21331;DHT22;10824;51.632;4.950;2023-03-14T05:23:17;9.80;99.90
21331;DHT22;10824;51.632;4.950;2023-03-14T05:26:01;9.80;99.90
21331;DHT22;10824;51.632;4.950;2023-03-14T05:28:48;9.80;99.90
21331;DHT22;10824;51.632;4.950;2023-03-14T05:31:48;9.80;99.90
21331;DHT22;10824;51.632;4.950;2023-03-14T05:34:29;9.80;99.90
21331;DHT22;10824;51.632;4.950;2023-03-14T05:37:13;9.80;99.90
21331;DHT22;10824;51.632;4.950;2023-03-14T05:40:09;9.80;99.90
21331;DHT22;10824;51.632;4.950;2023-03-14T05:42:42;9.80;99.90
21331;DHT22;10824;51.632;4.950;2023-03-14T05:45:18;9.80;99.90
21331;DHT22;10824;51.632;4.950;2023-03-14T05:48:19;9.80;99.90
21331;DHT22;10824;51.632;4.950;2023-03-14T05:50:59;9.80;99.90
21331;DHT22;10824;51.632;4.950;2023-03-14T05:53:44;9.80;99.90
21331;DHT22;10824;51.632;4.950;2023-03-14T05:56:32;9.80;99.90
21331;DHT22;10824;51.632;4.950;2023-03-14T05:59:08;9.80;99.90
21331;DHT22;10824;51.632;4.950;2023-03-14T06:01:58;9.80;99.90
21331;DHT22;10824;51.632;4.950;2023-03-14T06:04:28;9.80;99.90
21331;DHT22;10824;51.632;4.950;2023-03-14T06:06:58;9.80;99.90
21331;DHT22;10824;51.632;4.950;2023-03-14T06:09:26;9.80;99.90
21331;DHT22;10824;51.632;4.950;2023-03-14T06:11:56;9.80;99.90
21331;DHT22;10824;51.632;4.950;2023-03-14T06:14:23;9.70;99.90
21331;DHT22;10824;51.632;4.950;2023-03-14T06:16:53;9.70;99.90
21331;DHT22;10824;51.632;4.950;2023-03-14T06:19:22;9.70;99.90
21331;DHT22;10824;51.632;4.950;2023-03-14T06:21:50;9.70;99.90
21331;DHT22;10824;51.632;4.950;2023-03-14T06:24:18;9.70;99.90
21331;DHT22;10824;51.632;4.950;2023-03-14T06:26:48;9.70;99.90
21331;DHT22;10824;51.632;4.950;2023-03-14T06:29:15;9.70;99.90
21331;DHT22;10824;51.632;4.950;2023-03-14T06:31:42;9.70;99.90
21331;DHT22;10824;51.632;4.950;2023-03-14T06:34:11;9.80;99.90
21331;DHT22;10824;51.632;4.950;2023-03-14T06:36:38;9.80;99.90
21331;DHT22;10824;51.632;4.950;2023-03-14T06:39:06;9.80;99.90
21331;DHT22;10824;51.632;4.950;2023-03-14T06:41:36;9.80;99.90
21331;DHT22;10824;51.632;4.950;2023-03-14T06:44:03;9.80;99.90
21331;DHT22;10824;51.632;4.950;2023-03-14T06:46:33;9.60;99.90
21331;DHT22;10824;51.632;4.950;2023-03-14T06:49:00;9.20;99.90
21331;DHT22;10824;51.632;4.950;2023-03-14T06:51:28;9.00;99.90
21331;DHT22;10824;51.632;4.950;2023-03-14T06:53:55;9.10;99.90
21331;DHT22;10824;51.632;4.950;2023-03-14T06:56:25;9.00;99.90
21331;DHT22;10824;51.632;4.950;2023-03-14T06:58:54;9.10;99.90
21331;DHT22;10824;51.632;4.950;2023-03-14T07:01:26;9.00;99.90
21331;DHT22;10824;51.632;4.950;2023-03-14T07:03:58;9.00;99.90
21331;DHT22;10824;51.632;4.950;2023-03-14T07:06:26;8.90;99.90
21331;DHT22;10824;51.632;4.950;2023-03-14T07:08:56;8.80;99.90
21331;DHT22;10824;51.632;4.950;2023-03-14T07:11:24;8.80;99.90
21331;DHT22;10824;51.632;4.950;2023-03-14T07:13:51;8.70;99.90
21331;DHT22;10824;51.632;4.950;2023-03-14T07:16:20;8.70;99.90
21331;DHT22;10824;51.632;4.950;2023-03-14T07:18:47;8.70;99.90
21331;DHT22;10824;51.632;4.950;2023-03-14T07:21:16;8.60;99.90
21331;DHT22;10824;51.632;4.950;2023-03-14T07:23:46;8.60;99.90
21331;DHT22;10824;51.632;4.950;2023-03-14T07:26:14;8.70;99.90
21331;DHT22;10824;51.632;4.950;2023-03-14T07:28:46;8.70;99.90
21331;DHT22;10824;51.632;4.950;2023-03-14T07:31:17;8.60;99.90
21331;DHT22;10824;51.632;4.950;2023-03-14T07:33:45;8.60;99.90
21331;DHT22;10824;51.632;4.950;2023-03-14T07:36:13;8.60;99.90
21331;DHT22;10824;51.632;4.950;2023-03-14T07:38:43;8.50;99.90
21331;DHT22;10824;51.632;4.950;2023-03-14T07:41:19;8.60;99.90
21331;DHT22;10824;51.632;4.950;2023-03-14T07:44:07;8.60;99.90
21331;DHT22;10824;51.632;4.950;2023-03-14T07:46:34;8.50;99.90
21331;DHT22;10824;51.632;4.950;2023-03-14T07:49:03;8.50;99.90
21331;DHT22;10824;51.632;4.950;2023-03-14T07:51:30;8.50;99.90
21331;DHT22;10824;51.632;4.950;2023-03-14T07:53:56;8.40;99.90
21331;DHT22;10824;51.632;4.950;2023-03-14T07:56:24;8.40;99.90
21331;DHT22;10824;51.632;4.950;2023-03-14T07:58:50;8.50;99.90
21331;DHT22;10824;51.632;4.950;2023-03-14T08:01:17;8.50;99.90
21331;DHT22;10824;51.632;4.950;2023-03-14T08:03:44;8.50;99.90
21331;DHT22;10824;51.632;4.950;2023-03-14T08:06:11;8.50;99.90
21331;DHT22;10824;51.632;4.950;2023-03-14T08:08:39;8.50;99.90
21331;DHT22;10824;51.632;4.950;2023-03-14T08:11:06;8.40;99.90
21331;DHT22;10824;51.632;4.950;2023-03-14T08:13:36;8.40;99.90
21331;DHT22;10824;51.632;4.950;2023-03-14T08:16:03;8.40;99.90
21331;DHT22;10824;51.632;4.950;2023-03-14T08:18:31;8.30;99.90
21331;DHT22;10824;51.632;4.950;2023-03-14T08:20:58;8.40;99.90
21331;DHT22;10824;51.632;4.950;2023-03-14T08:23:25;8.40;99.90
21331;DHT22;10824;51.632;4.950;2023-03-14T08:25:52;8.40;99.90
21331;DHT22;10824;51.632;4.950;2023-03-14T08:28:19;8.40;99.90
21331;DHT22;10824;51.632;4.950;2023-03-14T08:30:46;8.40;99.90
21331;DHT22;10824;51.632;4.950;2023-03-14T08:33:14;8.40;99.90
21331;DHT22;10824;51.632;4.950;2023-03-14T08:35:42;8.30;99.90
21331;DHT22;10824;51.632;4.950;2023-03-14T08:38:08;8.30;99.90
21331;DHT22;10824;51.632;4.950;2023-03-14T08:40:36;8.30;99.90
21331;DHT22;10824;51.632;4.950;2023-03-14T08:43:04;8.40;99.90
21331;DHT22;10824;51.632;4.950;2023-03-14T08:45:31;8.40;99.90
21331;DHT22;10824;51.632;4.950;2023-03-14T08:47:58;8.50;99.90
21331;DHT22;10824;51.632;4.950;2023-03-14T08:50:25;8.50;99.90
21331;DHT22;10824;51.632;4.950;2023-03-14T08:52:52;8.60;99.90
21331;DHT22;10824;51.632;4.950;2023-03-14T08:55:19;8.60;99.90
21331;DHT22;10824;51.632;4.950;2023-03-14T08:57:47;8.60;99.90
21331;DHT22;10824;51.632;4.950;2023-03-14T09:00:14;8.50;99.90
21331;DHT22;10824;51.632;4.950;2023-03-14T09:02:42;8.40;99.90
21331;DHT22;10824;51.632;4.950;2023-03-14T09:05:10;8.30;99.90
21331;DHT22;10824;51.632;4.950;2023-03-14T09:07:38;8.20;99.90
21331;DHT22;10824;51.632;4.950;2023-03-14T09:10:06;8.00;99.90
21331;DHT22;10824;51.632;4.950;2023-03-14T09:12:33;8.10;99.90
21331;DHT22;10824;51.632;4.950;2023-03-14T09:15:01;8.10;99.90
21331;DHT22;10824;51.632;4.950;2023-03-14T09:17:28;8.00;99.90
21331;DHT22;10824;51.632;4.950;2023-03-14T09:19:55;7.80;99.90
21331;DHT22;10824;51.632;4.950;2023-03-14T09:22:26;7.60;99.90
21331;DHT22;10824;51.632;4.950;2023-03-14T09:24:53;7.50;99.90
21331;DHT22;10824;51.632;4.950;2023-03-14T09:27:20;7.50;99.90
21331;DHT22;10824;51.632;4.950;2023-03-14T09:29:47;7.60;99.90
21331;DHT22;10824;51.632;4.950;2023-03-14T09:32:14;7.50;99.90
21331;DHT22;10824;51.632;4.950;2023-03-14T09:34:41;7.60;99.90
21331;DHT22;10824;51.632;4.950;2023-03-14T09:37:08;7.50;99.90
21331;DHT22;10824;51.632;4.950;2023-03-14T09:39:37;7.70;99.90
21331;DHT22;10824;51.632;4.950;2023-03-14T09:42:06;7.70;99.90
21331;DHT22;10824;51.632;4.950;2023-03-14T09:44:53;7.80;99.90
21331;DHT22;10824;51.632;4.950;2023-03-14T09:47:21;7.60;99.90
21331;DHT22;10824;51.632;4.950;2023-03-14T09:49:49;7.60;99.90
21331;DHT22;10824;51.632;4.950;2023-03-14T09:52:36;7.50;99.90
21331;DHT22;10824;51.632;4.950;2023-03-14T09:55:14;7.60;99.90
21331;DHT22;10824;51.632;4.950;2023-03-14T09:57:45;7.60;99.90
21331;DHT22;10824;51.632;4.950;2023-03-14T10:00:23;7.70;99.70
21331;DHT22;10824;51.632;4.950;2023-03-14T10:03:21;7.80;99.20
21331;DHT22;10824;51.632;4.950;2023-03-14T10:05:48;7.90;96.70
21331;DHT22;10824;51.632;4.950;2023-03-14T10:08:15;7.80;94.20
21331;DHT22;10824;51.632;4.950;2023-03-14T10:10:42;7.80;91.30
21331;DHT22;10824;51.632;4.950;2023-03-14T10:15:37;8.10;94.50
21331;DHT22;10824;51.632;4.950;2023-03-14T10:18:11;8.30;95.40
21331;DHT22;10824;51.632;4.950;2023-03-14T10:20:44;8.20;92.10
21331;DHT22;10824;51.632;4.950;2023-03-14T10:25:44;7.80;95.60
21331;DHT22;10824;51.632;4.950;2023-03-14T10:28:32;7.80;99.80
21331;DHT22;10824;51.632;4.950;2023-03-14T10:31:00;7.80;99.90
21331;DHT22;10824;51.632;4.950;2023-03-14T10:33:30;7.80;99.90
21331;DHT22;10824;51.632;4.950;2023-03-14T10:38:33;8.00;98.40
21331;DHT22;10824;51.632;4.950;2023-03-14T10:41:02;8.00;95.50
21331;DHT22;10824;51.632;4.950;2023-03-14T10:43:34;8.10;95.10
21331;DHT22;10824;51.632;4.950;2023-03-14T10:46:18;8.10;96.40
21331;DHT22;10824;51.632;4.950;2023-03-14T10:49:06;7.90;97.70
21331;DHT22;10824;51.632;4.950;2023-03-14T10:51:33;7.90;98.90
21331;DHT22;10824;51.632;4.950;2023-03-14T10:54:14;7.90;98.10
21331;DHT22;10824;51.632;4.950;2023-03-14T10:56:41;7.70;97.00
21331;DHT22;10824;51.632;4.950;2023-03-14T10:59:15;7.60;97.50
21331;DHT22;10824;51.632;4.950;2023-03-14T11:01:58;7.50;97.50
21331;DHT22;10824;51.632;4.950;2023-03-14T11:07:15;7.60;94.80
21331;DHT22;10824;51.632;4.950;2023-03-14T11:18:51;8.00;94.00
21331;DHT22;10824;51.632;4.950;2023-03-14T11:21:46;8.10;93.80
21331;DHT22;10824;51.632;4.950;2023-03-14T11:27:18;7.90;91.50
21331;DHT22;10824;51.632;4.950;2023-03-14T11:29:55;7.80;91.30
21331;DHT22;10824;51.632;4.950;2023-03-14T11:32:45;7.50;90.70
21331;DHT22;10824;51.632;4.950;2023-03-14T11:35:20;7.40;94.40
21331;DHT22;10824;51.632;4.950;2023-03-14T11:37:54;7.40;90.20
21331;DHT22;10824;51.632;4.950;2023-03-14T11:40:26;7.40;85.80
21331;DHT22;10824;51.632;4.950;2023-03-14T11:43:32;7.60;88.50
21331;DHT22;10824;51.632;4.950;2023-03-14T11:46:05;7.70;65.40
21331;DHT22;10824;51.632;4.950;2023-03-14T11:48:53;7.90;62.90
21331;DHT22;10824;51.632;4.950;2023-03-14T11:51:28;7.80;58.80
21331;DHT22;10824;51.632;4.950;2023-03-14T11:59:21;8.10;54.30
21331;DHT22;10824;51.632;4.950;2023-03-14T12:01:57;8.50;59.50
21331;DHT22;10824;51.632;4.950;2023-03-14T12:07:03;8.40;48.40
21331;DHT22;10824;51.632;4.950;2023-03-14T12:09:32;8.50;47.60
21331;DHT22;10824;51.632;4.950;2023-03-14T12:12:02;8.70;50.30
21331;DHT22;10824;51.632;4.950;2023-03-14T12:14:36;8.60;41.80
21331;DHT22;10824;51.632;4.950;2023-03-14T12:17:06;8.90;40.40
21331;DHT22;10824;51.632;4.950;2023-03-14T12:19:39;9.10;39.20
21331;DHT22;10824;51.632;4.950;2023-03-14T12:24:36;9.20;39.60
21331;DHT22;10824;51.632;4.950;2023-03-14T12:27:06;9.20;34.50
21331;DHT22;10824;51.632;4.950;2023-03-14T12:29:56;9.10;24.80
21331;DHT22;10824;51.632;4.950;2023-03-14T12:32:24;9.00;21.10
21331;DHT22;10824;51.632;4.950;2023-03-14T12:34:52;9.00;18.70
21331;DHT22;10824;51.632;4.950;2023-03-14T12:37:25;8.90;16.50
21331;DHT22;10824;51.632;4.950;2023-03-14T12:42:40;9.20;1.00
21331;DHT22;10824;51.632;4.950;2023-03-14T12:45:30;9.00;1.00
21331;DHT22;10824;51.632;4.950;2023-03-14T12:51:01;9.50;1.00
21331;DHT22;10824;51.632;4.950;2023-03-14T12:59:02;9.40;1.00
21331;DHT22;10824;51.632;4.950;2023-03-14T13:01:33;9.10;1.00
21331;DHT22;10824;51.632;4.950;2023-03-14T13:04:09;9.40;1.00
21331;DHT22;10824;51.632;4.950;2023-03-14T13:12:13;9.50;1.00
21331;DHT22;10824;51.632;4.950;2023-03-14T13:14:49;9.60;1.00
21331;DHT22;10824;51.632;4.950;2023-03-14T13:17:28;9.70;1.00
21331;DHT22;10824;51.632;4.950;2023-03-14T13:20:10;9.80;1.00
21331;DHT22;10824;51.632;4.950;2023-03-14T13:22:38;9.70;1.00
21331;DHT22;10824;51.632;4.950;2023-03-14T13:25:09;9.50;1.00
21331;DHT22;10824;51.632;4.950;2023-03-14T13:27:36;9.70;1.00
21331;DHT22;10824;51.632;4.950;2023-03-14T13:30:25;9.70;1.00
21331;DHT22;10824;51.632;4.950;2023-03-14T13:32:55;9.60;1.00
21331;DHT22;10824;51.632;4.950;2023-03-14T13:35:28;9.60;1.00
21331;DHT22;10824;51.632;4.950;2023-03-14T13:38:01;9.70;1.00
21331;DHT22;10824;51.632;4.950;2023-03-14T13:40:45;9.50;1.00
21331;DHT22;10824;51.632;4.950;2023-03-14T13:43:20;9.30;1.00
21331;DHT22;10824;51.632;4.950;2023-03-14T13:46:03;9.30;1.00
21331;DHT22;10824;51.632;4.950;2023-03-14T13:48:33;9.30;1.00
21331;DHT22;10824;51.632;4.950;2023-03-14T13:51:05;9.40;1.00
21331;DHT22;10824;51.632;4.950;2023-03-14T13:53:43;9.20;1.00
21331;DHT22;10824;51.632;4.950;2023-03-14T13:56:11;9.20;1.00
21331;DHT22;10824;51.632;4.950;2023-03-14T13:58:40;9.30;1.00
21331;DHT22;10824;51.632;4.950;2023-03-14T14:03:42;9.00;1.00
21331;DHT22;10824;51.632;4.950;2023-03-14T14:06:25;8.70;1.00
21331;DHT22;10824;51.632;4.950;2023-03-14T14:08:59;9.00;1.00
21331;DHT22;10824;51.632;4.950;2023-03-14T14:14:34;9.10;1.00
21331;DHT22;10824;51.632;4.950;2023-03-14T14:17:06;9.10;1.00
21331;DHT22;10824;51.632;4.950;2023-03-14T14:19:35;9.00;1.00
21331;DHT22;10824;51.632;4.950;2023-03-14T14:22:03;9.00;1.00
21331;DHT22;10824;51.632;4.950;2023-03-14T14:24:32;8.80;1.00
21331;DHT22;10824;51.632;4.950;2023-03-14T14:27:13;8.80;1.00
21331;DHT22;10824;51.632;4.950;2023-03-14T14:29:42;8.90;1.00
21331;DHT22;10824;51.632;4.950;2023-03-14T14:32:13;9.00;1.00
21331;DHT22;10824;51.632;4.950;2023-03-14T14:35:21;8.90;1.00
21331;DHT22;10824;51.632;4.950;2023-03-14T14:37:44;8.60;1.00
21331;DHT22;10824;51.632;4.950;2023-03-14T14:40:47;8.70;1.00
21331;DHT22;10824;51.632;4.950;2023-03-14T14:43:28;8.60;1.00
21331;DHT22;10824;51.632;4.950;2023-03-14T14:45:56;8.50;1.00
21331;DHT22;10824;51.632;4.950;2023-03-14T14:48:26;8.50;1.00
21331;DHT22;10824;51.632;4.950;2023-03-14T14:51:03;8.60;1.00
21331;DHT22;10824;51.632;4.950;2023-03-14T14:53:43;8.50;1.00
21331;DHT22;10824;51.632;4.950;2023-03-14T14:56:19;8.50;1.00
21331;DHT22;10824;51.632;4.950;2023-03-14T14:58:49;8.50;1.00
21331;DHT22;10824;51.632;4.950;2023-03-14T15:01:22;8.50;1.00
21331;DHT22;10824;51.632;4.950;2023-03-14T15:03:53;8.50;1.00
21331;DHT22;10824;51.632;4.950;2023-03-14T15:06:29;8.40;1.00
21331;DHT22;10824;51.632;4.950;2023-03-14T15:08:58;8.40;1.00
21331;DHT22;10824;51.632;4.950;2023-03-14T15:11:26;8.40;1.00
21331;DHT22;10824;51.632;4.950;2023-03-14T15:13:53;8.30;1.00
21331;DHT22;10824;51.632;4.950;2023-03-14T15:16:23;8.30;1.00
21331;DHT22;10824;51.632;4.950;2023-03-14T15:18:55;8.30;1.00
21331;DHT22;10824;51.632;4.950;2023-03-14T15:21:24;8.30;1.00
21331;DHT22;10824;51.632;4.950;2023-03-14T15:23:51;8.20;1.00
21331;DHT22;10824;51.632;4.950;2023-03-14T15:26:26;8.10;1.00
21331;DHT22;10824;51.632;4.950;2023-03-14T15:28:53;8.10;1.00
21331;DHT22;10824;51.632;4.950;2023-03-14T15:31:21;8.10;1.00
21331;DHT22;10824;51.632;4.950;2023-03-14T15:33:48;8.00;1.00
21331;DHT22;10824;51.632;4.950;2023-03-14T15:36:26;7.80;1.00
21331;DHT22;10824;51.632;4.950;2023-03-14T15:38:55;7.80;1.00
21331;DHT22;10824;51.632;4.950;2023-03-14T15:41:22;7.80;1.00
21331;DHT22;10824;51.632;4.950;2023-03-14T15:43:50;7.80;1.00
21331;DHT22;10824;51.632;4.950;2023-03-14T15:46:19;7.90;1.00
21331;DHT22;10824;51.632;4.950;2023-03-14T15:48:46;7.60;1.00
21331;DHT22;10824;51.632;4.950;2023-03-14T15:51:14;7.70;1.00
21331;DHT22;10824;51.632;4.950;2023-03-14T15:53:41;7.60;1.00
21331;DHT22;10824;51.632;4.950;2023-03-14T15:56:16;7.60;1.00
21331;DHT22;10824;51.632;4.950;2023-03-14T15:58:44;7.70;1.00
21331;DHT22;10824;51.632;4.950;2023-03-14T16:01:14;7.70;1.00
21331;DHT22;10824;51.632;4.950;2023-03-14T16:03:46;7.70;1.00
21331;DHT22;10824;51.632;4.950;2023-03-14T16:06:13;7.70;1.00
21331;DHT22;10824;51.632;4.950;2023-03-14T16:08:41;7.80;1.00
21331;DHT22;10824;51.632;4.950;2023-03-14T16:11:10;7.70;1.00
21331;DHT22;10824;51.632;4.950;2023-03-14T16:13:39;7.60;1.00
21331;DHT22;10824;51.632;4.950;2023-03-14T16:16:07;7.50;1.00
21331;DHT22;10824;51.632;4.950;2023-03-14T16:18:36;7.60;1.00
21331;DHT22;10824;51.632;4.950;2023-03-14T16:21:06;7.60;1.00
21331;DHT22;10824;51.632;4.950;2023-03-14T16:23:34;7.60;1.00
21331;DHT22;10824;51.632;4.950;2023-03-14T16:26:10;7.60;1.00
21331;DHT22;10824;51.632;4.950;2023-03-14T16:28:38;7.60;1.00
21331;DHT22;10824;51.632;4.950;2023-03-14T16:31:10;7.50;1.00
21331;DHT22;10824;51.632;4.950;2023-03-14T16:33:39;7.50;1.00
21331;DHT22;10824;51.632;4.950;2023-03-14T16:36:09;7.60;1.00
21331;DHT22;10824;51.632;4.950;2023-03-14T16:38:40;7.50;1.00
21331;DHT22;10824;51.632;4.950;2023-03-14T16:41:11;7.50;1.00
21331;DHT22;10824;51.632;4.950;2023-03-14T16:43:39;7.40;1.00
21331;DHT22;10824;51.632;4.950;2023-03-14T16:46:10;7.50;1.00
21331;DHT22;10824;51.632;4.950;2023-03-14T16:48:37;7.40;1.00
21331;DHT22;10824;51.632;4.950;2023-03-14T16:51:05;7.40;1.00
21331;DHT22;10824;51.632;4.950;2023-03-14T16:53:32;7.40;1.00
21331;DHT22;10824;51.632;4.950;2023-03-14T16:56:00;7.50;1.00
21331;DHT22;10824;51.632;4.950;2023-03-14T16:58:28;7.40;1.00
21331;DHT22;10824;51.632;4.950;2023-03-14T17:00:57;7.40;1.00
21331;DHT22;10824;51.632;4.950;2023-03-14T17:03:25;7.30;1.00
21331;DHT22;10824;51.632;4.950;2023-03-14T17:05:53;7.20;1.00
21331;DHT22;10824;51.632;4.950;2023-03-14T17:08:20;7.20;1.00
21331;DHT22;10824;51.632;4.950;2023-03-14T17:10:47;7.20;1.00
21331;DHT22;10824;51.632;4.950;2023-03-14T17:13:15;7.20;1.00
21331;DHT22;10824;51.632;4.950;2023-03-14T17:15:45;7.10;1.00